Home > Products > Valid Products > TAF

000
FTUS42 KMFL 272048 AAB
TAFFLL
TAF AMD
KFLL 272048Z 2721/2818 14011KT P6SM VCTS SCT030CB BKN070
     FM280000 13005KT P6SM SCT050
     FM281500 16015KT P6SM VCSH SCT030 BKN050=



000
FTUS42 KMFL 272048 AAB
TAFMIA
TAF AMD
KMIA 272048Z 2721/2818 14011KT P6SM VCTS SCT030CB BKN070
     FM280000 10004KT P6SM SCT050
     FM281500 15010G20KT P6SM SCT030 SCT050=



000
FTUS42 KMFL 272048 AAB
TAFAPF
TAF AMD
KAPF 272048Z 2721/2818 23009KT P6SM SKC
     FM280200 08004KT P6SM SKC
     FM281400 18010G20KT P6SM SCT040=



000
FTUS42 KMFL 272048 AAB
TAFPBI
TAF AMD
KPBI 272048Z 2721/2818 32009KT P6SM VCTS SCT030CB BKN050
     FM280200 VRB04KT P6SM SCT040
     FM281500 15011KT P6SM VCTS SCT030CB BKN050=



000
FTUS42 KMFL 272048 AAB
TAFPBI
TAF AMD
KPBI 272048Z 2721/2818 32009KT P6SM VCTS SCT030CB BKN050
     FM280200 VRB04KT P6SM SCT040
     FM281500 15011KT P6SM VCTS SCT030CB BKN050=



000
FTUS42 KMFL 272048 AAB
TAFMIA
TAF AMD
KMIA 272048Z 2721/2818 14011KT P6SM VCTS SCT030CB BKN070
     FM280000 10004KT P6SM SCT050
     FM281500 15010G20KT P6SM SCT030 SCT050=



000
FTUS42 KMFL 272048 AAB
TAFFLL
TAF AMD
KFLL 272048Z 2721/2818 14011KT P6SM VCTS SCT030CB BKN070
     FM280000 13005KT P6SM SCT050
     FM281500 16015KT P6SM VCSH SCT030 BKN050=



000
FTUS42 KMFL 272048 AAB
TAFAPF
TAF AMD
KAPF 272048Z 2721/2818 23009KT P6SM SKC
     FM280200 08004KT P6SM SKC
     FM281400 18010G20KT P6SM SCT040=



000
FTUS42 KMFL 271915 AAA
TAFAPF
TAF AMD
KAPF 271915Z 2719/2818 25009KT P6SM FEW040
     FM280200 08004KT P6SM SKC
     FM280400 13006KT P6SM SKC
     FM281000 10004KT P6SM SCT015
     FM281400 17010KT P6SM SCT040=



000
FTUS42 KMFL 271915 AAA
TAFMIA
TAF AMD
KMIA 271915Z 2719/2818 14011KT P6SM VCTS SCT030CB BKN070
      TEMPO 2721/2723 VRB15G25KT 5SM TSRA SCT025CB BKN050
     FM280000 08004KT P6SM SCT050
     FM280500 13005KT P6SM SCT250=



000
FTUS42 KMFL 271915 AAA
TAFPBI
TAF AMD
KPBI 271915Z 2719/2818 34009KT P6SM VCTS SCT030CB BKN050
      TEMPO 2721/2723 VRB15G25KT 5SM TSRA SCT035CB BKN050
     FM280000 07004KT P6SM SCT040
     FM280600 18003KT P6SM BKN250=



000
FTUS42 KMFL 271915 AAA
TAFFLL
TAF AMD
KFLL 271915Z 2719/2818 14011KT P6SM VCTS SCT030CB BKN070
      TEMPO 2721/2723 VRB15G25KT 5SM TSRA SCT035CB BKN050
     FM280000 07005KT P6SM SCT050
     FM280300 13006KT P6SM BKN250=



000
FTUS42 KMFL 271742
TAFPBI
TAF
KPBI 271742Z 2718/2818 29010KT P6SM VCTS SCT030CB BKN250
     FM271900 30009KT P6SM VCTS SCT030CB BKN050
      TEMPO 2719/2723 VRB15G25KT 5SM TSRA SCT035CB BKN050
     FM280000 07004KT P6SM SCT040
     FM280600 18003KT P6SM BKN250=



000
FTUS42 KMFL 271742
TAFAPF
TAF
KAPF 271742Z 2718/2818 30007KT P6SM SCT040
     FM280200 08004KT P6SM SKC
     FM280400 13006KT P6SM SKC
     FM281000 10004KT P6SM SCT015
     FM281400 17010KT P6SM SCT040=



000
FTUS42 KMFL 271742
TAFFLL
TAF
KFLL 271742Z 2718/2818 32008KT P6SM VCTS SCT050CB BKN250
     FM271900 14011KT P6SM VCTS SCT030CB BKN070
      TEMPO 2719/2723 VRB15G25KT 5SM TSRA SCT035CB BKN050
     FM280000 07005KT P6SM SCT050
     FM280300 13006KT P6SM BKN250=



000
FTUS42 KMFL 271742
TAFMIA
TAF
KMIA 271742Z 2718/2818 21011KT P6SM VCTS SCT040CB BKN070
     FM271900 16011KT P6SM VCTS SCT030CB BKN070
      TEMPO 2719/2723 VRB15G25KT 5SM TSRA SCT025CB BKN050
     FM280000 08004KT P6SM SCT050
     FM280500 13005KT P6SM SCT250=



000
FTUS42 KMFL 271742
TAFPBI
TAF
KPBI 271742Z 2718/2818 29010KT P6SM VCTS SCT030CB BKN250
     FM271900 30009KT P6SM VCTS SCT030CB BKN050
      TEMPO 2719/2723 VRB15G25KT 5SM TSRA SCT035CB BKN050
     FM280000 07004KT P6SM SCT040
     FM280600 18003KT P6SM BKN250=



000
FTUS42 KMFL 271742
TAFMIA
TAF
KMIA 271742Z 2718/2818 21011KT P6SM VCTS SCT040CB BKN070
     FM271900 16011KT P6SM VCTS SCT030CB BKN070
      TEMPO 2719/2723 VRB15G25KT 5SM TSRA SCT025CB BKN050
     FM280000 08004KT P6SM SCT050
     FM280500 13005KT P6SM SCT250=



000
FTUS42 KMFL 271742
TAFAPF
TAF
KAPF 271742Z 2718/2818 30007KT P6SM SCT040
     FM280200 08004KT P6SM SKC
     FM280400 13006KT P6SM SKC
     FM281000 10004KT P6SM SCT015
     FM281400 17010KT P6SM SCT040=



000
FTUS42 KMFL 271742
TAFFLL
TAF
KFLL 271742Z 2718/2818 32008KT P6SM VCTS SCT050CB BKN250
     FM271900 14011KT P6SM VCTS SCT030CB BKN070
      TEMPO 2719/2723 VRB15G25KT 5SM TSRA SCT035CB BKN050
     FM280000 07005KT P6SM SCT050
     FM280300 13006KT P6SM BKN250=



000
FTUS42 KMFL 271742
TAFFLL
TAF
KFLL 271742Z 2718/2818 32008KT P6SM VCTS SCT050CB BKN250
     FM271900 14011KT P6SM VCTS SCT030CB BKN070
      TEMPO 2719/2723 VRB15G25KT 5SM TSRA SCT035CB BKN050
     FM280000 07005KT P6SM SCT050
     FM280300 13006KT P6SM BKN250=



000
FTUS42 KMFL 271742
TAFAPF
TAF
KAPF 271742Z 2718/2818 30007KT P6SM SCT040
     FM280200 08004KT P6SM SKC
     FM280400 13006KT P6SM SKC
     FM281000 10004KT P6SM SCT015
     FM281400 17010KT P6SM SCT040=



000
FTUS42 KMFL 271742
TAFMIA
TAF
KMIA 271742Z 2718/2818 21011KT P6SM VCTS SCT040CB BKN070
     FM271900 16011KT P6SM VCTS SCT030CB BKN070
      TEMPO 2719/2723 VRB15G25KT 5SM TSRA SCT025CB BKN050
     FM280000 08004KT P6SM SCT050
     FM280500 13005KT P6SM SCT250=



000
FTUS42 KMFL 271514 AAA
TAFFLL
TAF AMD
KFLL 271514Z 2715/2812 28010G20KT P6SM FEW035 BKN250
     FM271600 29009KT P6SM VCTS SCT030CB BKN200
     FM271900 16011KT P6SM VCTS SCT030CB BKN070
     FM280000 15005KT P6SM SCT050=



000
FTUS42 KMFL 271514 AAA
TAFAPF
TAF AMD
KAPF 271514Z 2715/2812 30007KT P6SM SKC
     FM280000 21004KT P6SM FEW050=



000
FTUS42 KMFL 271514 AAA
TAFMIA
TAF AMD
KMIA 271514Z 2715/2812 27006KT P6SM FEW030 BKN300
     FM271600 25010KT P6SM VCTS SCT030CB BKN200
     FM271900 17011KT P6SM VCTS SCT030CB BKN070
     FM280000 06004KT P6SM SCT050=



000
FTUS42 KMFL 271514 AAA
TAFMIA
TAF AMD
KMIA 271514Z 2715/2812 27006KT P6SM FEW030 BKN300
     FM271600 25010KT P6SM VCTS SCT030CB BKN200
     FM271900 17011KT P6SM VCTS SCT030CB BKN070
     FM280000 06004KT P6SM SCT050=



000
FTUS42 KMFL 271514 AAA
TAFPBI
TAF AMD
KPBI 271514Z 2715/2812 29010KT P6SM FEW021 SCT250
     FM271600 31009KT P6SM VCTS SCT030CB BKN200
     FM272100 03009KT P6SM VCTS SCT030CB BKN050
     FM280000 07004KT P6SM SCT040=



000
FTUS42 KMFL 271514 AAA
TAFFLL
TAF AMD
KFLL 271514Z 2715/2812 28010G20KT P6SM FEW035 BKN250
     FM271600 29009KT P6SM VCTS SCT030CB BKN200
     FM271900 16011KT P6SM VCTS SCT030CB BKN070
     FM280000 15005KT P6SM SCT050=



000
FTUS42 KMFL 271514 AAA
TAFPBI
TAF AMD
KPBI 271514Z 2715/2812 29010KT P6SM FEW021 SCT250
     FM271600 31009KT P6SM VCTS SCT030CB BKN200
     FM272100 03009KT P6SM VCTS SCT030CB BKN050
     FM280000 07004KT P6SM SCT040=



000
FTUS42 KMFL 271514 AAA
TAFAPF
TAF AMD
KAPF 271514Z 2715/2812 30007KT P6SM SKC
     FM280000 21004KT P6SM FEW050=



000
FTUS42 KMFL 271133
TAFFLL
TAF
KFLL 271133Z 2712/2812 25006KT P6SM BKN045 BKN250
     FM271600 29009KT P6SM VCTS SCT030CB BKN200
     FM271900 08011KT P6SM VCTS SCT030CB BKN070
     FM280000 15005KT P6SM SCT050=



000
FTUS42 KMFL 271133
TAFAPF
TAF
KAPF 271133Z 2712/2812 28006KT P6SM BKN045
     FM271500 25010KT P6SM FEW020 BKN200
     FM280000 21004KT P6SM FEW050=



000
FTUS42 KMFL 271133
TAFMIA
TAF
KMIA 271133Z 2712/2812 23005KT P6SM SCT200 BKN300
     FM271600 25010KT P6SM VCTS SCT030CB BKN200
     FM271900 08011KT P6SM VCTS SCT030CB BKN070
     FM280000 17004KT P6SM SCT050=



000
FTUS42 KMFL 271133
TAFPBI
TAF
KPBI 271133Z 2712/2812 24008KT P6SM SCT250
     FM271600 31009KT P6SM VCTS SCT030CB BKN200
     FM271900 08009KT P6SM VCTS SCT030CB BKN050
     FM280000 14004KT P6SM SCT040=



000
FTUS42 KMFL 271133
TAFPBI
TAF
KPBI 271133Z 2712/2812 24008KT P6SM SCT250
     FM271600 31009KT P6SM VCTS SCT030CB BKN200
     FM271900 08009KT P6SM VCTS SCT030CB BKN050
     FM280000 14004KT P6SM SCT040=



000
FTUS42 KMFL 271133
TAFMIA
TAF
KMIA 271133Z 2712/2812 23005KT P6SM SCT200 BKN300
     FM271600 25010KT P6SM VCTS SCT030CB BKN200
     FM271900 08011KT P6SM VCTS SCT030CB BKN070
     FM280000 17004KT P6SM SCT050=



000
FTUS42 KMFL 271133
TAFAPF
TAF
KAPF 271133Z 2712/2812 28006KT P6SM BKN045
     FM271500 25010KT P6SM FEW020 BKN200
     FM280000 21004KT P6SM FEW050=



000
FTUS42 KMFL 271133
TAFMIA
TAF
KMIA 271133Z 2712/2812 23005KT P6SM SCT200 BKN300
     FM271600 25010KT P6SM VCTS SCT030CB BKN200
     FM271900 08011KT P6SM VCTS SCT030CB BKN070
     FM280000 17004KT P6SM SCT050=



000
FTUS42 KMFL 271133
TAFPBI
TAF
KPBI 271133Z 2712/2812 24008KT P6SM SCT250
     FM271600 31009KT P6SM VCTS SCT030CB BKN200
     FM271900 08009KT P6SM VCTS SCT030CB BKN050
     FM280000 14004KT P6SM SCT040=



000
FTUS42 KMFL 271133
TAFFLL
TAF
KFLL 271133Z 2712/2812 25006KT P6SM BKN045 BKN250
     FM271600 29009KT P6SM VCTS SCT030CB BKN200
     FM271900 08011KT P6SM VCTS SCT030CB BKN070
     FM280000 15005KT P6SM SCT050=



000
FTUS42 KMFL 271133
TAFFLL
TAF
KFLL 271133Z 2712/2812 25006KT P6SM BKN045 BKN250
     FM271600 29009KT P6SM VCTS SCT030CB BKN200
     FM271900 08011KT P6SM VCTS SCT030CB BKN070
     FM280000 15005KT P6SM SCT050=



000
FTUS42 KMFL 271133
TAFAPF
TAF
KAPF 271133Z 2712/2812 28006KT P6SM BKN045
     FM271500 25010KT P6SM FEW020 BKN200
     FM280000 21004KT P6SM FEW050=



000
FTUS42 KMFL 271133
TAFPBI
TAF
KPBI 271133Z 2712/2812 24008KT P6SM SCT250
     FM271600 31009KT P6SM VCTS SCT030CB BKN200
     FM271900 08009KT P6SM VCTS SCT030CB BKN050
     FM280000 14004KT P6SM SCT040=



000
FTUS42 KMFL 271133
TAFMIA
TAF
KMIA 271133Z 2712/2812 23005KT P6SM SCT200 BKN300
     FM271600 25010KT P6SM VCTS SCT030CB BKN200
     FM271900 08011KT P6SM VCTS SCT030CB BKN070
     FM280000 17004KT P6SM SCT050=



000
FTUS42 KMFL 271133
TAFFLL
TAF
KFLL 271133Z 2712/2812 25006KT P6SM BKN045 BKN250
     FM271600 29009KT P6SM VCTS SCT030CB BKN200
     FM271900 08011KT P6SM VCTS SCT030CB BKN070
     FM280000 15005KT P6SM SCT050=



000
FTUS42 KMFL 271133
TAFAPF
TAF
KAPF 271133Z 2712/2812 28006KT P6SM BKN045
     FM271500 25010KT P6SM FEW020 BKN200
     FM280000 21004KT P6SM FEW050=



000
FTUS42 KMFL 270846 AAA
TAFFLL
TAF AMD
KFLL 270846Z 2709/2806 26006KT P6SM SKC
     FM271600 29009KT P6SM VCTS SCT030CB BKN200
     FM271900 08011KT P6SM VCTS SCT030CB BKN070
     FM280000 15005KT P6SM SCT050=



000
FTUS42 KMFL 270846 AAA
TAFMIA
TAF AMD
KMIA 270846Z 2709/2806 26004KT P6SM SKC
     FM271600 25010KT P6SM VCTS SCT030CB BKN200
     FM271900 08011KT P6SM VCTS SCT030CB BKN070
     FM280000 17004KT P6SM SCT050=



000
FTUS42 KMFL 270846 AAA
TAFAPF
TAF AMD
KAPF 270846Z 2709/2806 26006KT P6SM SKC
     FM271500 25010KT P6SM FEW020 BKN200
     FM280000 21004KT P6SM FEW050=



000
FTUS42 KMFL 270846 AAA
TAFMIA
TAF AMD
KMIA 270846Z 2709/2806 26004KT P6SM SKC
     FM271600 25010KT P6SM VCTS SCT030CB BKN200
     FM271900 08011KT P6SM VCTS SCT030CB BKN070
     FM280000 17004KT P6SM SCT050=



000
FTUS42 KMFL 270846 AAA
TAFPBI
TAF AMD
KPBI 270846Z 2709/2806 25008KT P6SM SKC
     FM271600 31009KT P6SM VCTS SCT030CB BKN200
     FM271900 08009KT P6SM VCTS SCT030CB BKN050
     FM280000 14004KT P6SM SCT040=



000
FTUS42 KMFL 270846 AAA
TAFAPF
TAF AMD
KAPF 270846Z 2709/2806 26006KT P6SM SKC
     FM271500 25010KT P6SM FEW020 BKN200
     FM280000 21004KT P6SM FEW050=



000
FTUS42 KMFL 270846 AAA
TAFFLL
TAF AMD
KFLL 270846Z 2709/2806 26006KT P6SM SKC
     FM271600 29009KT P6SM VCTS SCT030CB BKN200
     FM271900 08011KT P6SM VCTS SCT030CB BKN070
     FM280000 15005KT P6SM SCT050=



000
FTUS42 KMFL 270846 AAA
TAFPBI
TAF AMD
KPBI 270846Z 2709/2806 25008KT P6SM SKC
     FM271600 31009KT P6SM VCTS SCT030CB BKN200
     FM271900 08009KT P6SM VCTS SCT030CB BKN050
     FM280000 14004KT P6SM SCT040=



000
FTUS42 KMFL 270846 AAA
TAFMIA
TAF AMD
KMIA 270846Z 2709/2806 26004KT P6SM SKC
     FM271600 25010KT P6SM VCTS SCT030CB BKN200
     FM271900 08011KT P6SM VCTS SCT030CB BKN070
     FM280000 17004KT P6SM SCT050=



000
FTUS42 KMFL 270846 AAA
TAFFLL
TAF AMD
KFLL 270846Z 2709/2806 26006KT P6SM SKC
     FM271600 29009KT P6SM VCTS SCT030CB BKN200
     FM271900 08011KT P6SM VCTS SCT030CB BKN070
     FM280000 15005KT P6SM SCT050=



000
FTUS42 KMFL 270846 AAA
TAFAPF
TAF AMD
KAPF 270846Z 2709/2806 26006KT P6SM SKC
     FM271500 25010KT P6SM FEW020 BKN200
     FM280000 21004KT P6SM FEW050=



000
FTUS42 KMFL 270846 AAA
TAFPBI
TAF AMD
KPBI 270846Z 2709/2806 25008KT P6SM SKC
     FM271600 31009KT P6SM VCTS SCT030CB BKN200
     FM271900 08009KT P6SM VCTS SCT030CB BKN050
     FM280000 14004KT P6SM SCT040=



000
FTUS42 KMFL 270846 AAA
TAFPBI
TAF AMD
KPBI 270846Z 2709/2806 25008KT P6SM SKC
     FM271600 31009KT P6SM VCTS SCT030CB BKN200
     FM271900 08009KT P6SM VCTS SCT030CB BKN050
     FM280000 14004KT P6SM SCT040=



000
FTUS42 KMFL 270846 AAA
TAFAPF
TAF AMD
KAPF 270846Z 2709/2806 26006KT P6SM SKC
     FM271500 25010KT P6SM FEW020 BKN200
     FM280000 21004KT P6SM FEW050=



000
FTUS42 KMFL 270846 AAA
TAFMIA
TAF AMD
KMIA 270846Z 2709/2806 26004KT P6SM SKC
     FM271600 25010KT P6SM VCTS SCT030CB BKN200
     FM271900 08011KT P6SM VCTS SCT030CB BKN070
     FM280000 17004KT P6SM SCT050=



000
FTUS42 KMFL 270535
TAFPBI
TAF
KPBI 270535Z 2706/2806 26008KT P6SM SKC
     FM271600 31009KT P6SM VCTS SCT030CB BKN200
     FM271900 08009KT P6SM VCTS SCT030CB BKN050
     FM280000 14004KT P6SM SCT040=



000
FTUS42 KMFL 270535
TAFAPF
TAF
KAPF 270535Z 2706/2806 26006KT P6SM SKC
     FM271500 25010KT P6SM FEW020 BKN200
     FM280000 21004KT P6SM FEW050=



000
FTUS42 KMFL 270535
TAFFLL
TAF
KFLL 270535Z 2706/2806 28007KT P6SM SKC
     FM271600 29009KT P6SM VCTS SCT030CB BKN200
     FM271900 08011KT P6SM VCTS SCT030CB BKN070
     FM280000 15005KT P6SM SCT050=



000
FTUS42 KMFL 270535
TAFMIA
TAF
KMIA 270535Z 2706/2806 26004KT P6SM SKC
     FM271600 25010KT P6SM VCTS SCT030CB BKN200
     FM271900 08011KT P6SM VCTS SCT030CB BKN070
     FM280000 17004KT P6SM SCT050=



000
FTUS42 KMFL 270535
TAFPBI
TAF
KPBI 270535Z 2706/2806 26008KT P6SM SKC
     FM271600 31009KT P6SM VCTS SCT030CB BKN200
     FM271900 08009KT P6SM VCTS SCT030CB BKN050
     FM280000 14004KT P6SM SCT040=



000
FTUS42 KMFL 270535
TAFAPF
TAF
KAPF 270535Z 2706/2806 26006KT P6SM SKC
     FM271500 25010KT P6SM FEW020 BKN200
     FM280000 21004KT P6SM FEW050=



000
FTUS42 KMFL 270535
TAFMIA
TAF
KMIA 270535Z 2706/2806 26004KT P6SM SKC
     FM271600 25010KT P6SM VCTS SCT030CB BKN200
     FM271900 08011KT P6SM VCTS SCT030CB BKN070
     FM280000 17004KT P6SM SCT050=



000
FTUS42 KMFL 270535
TAFFLL
TAF
KFLL 270535Z 2706/2806 28007KT P6SM SKC
     FM271600 29009KT P6SM VCTS SCT030CB BKN200
     FM271900 08011KT P6SM VCTS SCT030CB BKN070
     FM280000 15005KT P6SM SCT050=



000
FTUS42 KMFL 270535
TAFMIA
TAF
KMIA 270535Z 2706/2806 26004KT P6SM SKC
     FM271600 25010KT P6SM VCTS SCT030CB BKN200
     FM271900 08011KT P6SM VCTS SCT030CB BKN070
     FM280000 17004KT P6SM SCT050=



000
FTUS42 KMFL 270535
TAFAPF
TAF
KAPF 270535Z 2706/2806 26006KT P6SM SKC
     FM271500 25010KT P6SM FEW020 BKN200
     FM280000 21004KT P6SM FEW050=



000
FTUS42 KMFL 270535
TAFPBI
TAF
KPBI 270535Z 2706/2806 26008KT P6SM SKC
     FM271600 31009KT P6SM VCTS SCT030CB BKN200
     FM271900 08009KT P6SM VCTS SCT030CB BKN050
     FM280000 14004KT P6SM SCT040=



000
FTUS42 KMFL 270535
TAFFLL
TAF
KFLL 270535Z 2706/2806 28007KT P6SM SKC
     FM271600 29009KT P6SM VCTS SCT030CB BKN200
     FM271900 08011KT P6SM VCTS SCT030CB BKN070
     FM280000 15005KT P6SM SCT050=



000
FTUS42 KMFL 270308 AAA
TAFPBI
TAF AMD
KPBI 270308Z 2703/2724 26009KT P6SM SKC
     FM271800 33009KT P6SM VCTS SCT030CB BKN200
     FM272000 07007KT P6SM VCTS SCT030CB BKN050=



000
FTUS42 KMFL 270308 AAA
TAFMIA
TAF AMD
KMIA 270308Z 2703/2724 26005KT P6SM SKC
     FM271800 25011KT P6SM VCTS SCT030CB BKN200
     FM272100 08009KT P6SM VCTS SCT030CB BKN100=



000
FTUS42 KMFL 270308 AAA
TAFPBI
TAF AMD
KPBI 270308Z 2703/2724 26009KT P6SM SKC
     FM271800 33009KT P6SM VCTS SCT030CB BKN200
     FM272000 07007KT P6SM VCTS SCT030CB BKN050=



000
FTUS42 KMFL 270308 AAA
TAFFLL
TAF AMD
KFLL 270308Z 2703/2724 28008KT P6SM SKC
     FM271800 28010KT P6SM VCTS SCT030CB BKN200
     FM272000 06010KT P6SM VCTS SCT030CB BKN100=



000
FTUS42 KMFL 270308 AAB
TAFAPF
TAF AMD
KAPF 270308Z 2703/2724 26007KT P6SM SCT015
     FM270400 VRB04KT P6SM SKC
     FM271300 25009KT P6SM FEW020 BKN200=



000
FTUS42 KMFL 270308 AAA
TAFFLL
TAF AMD
KFLL 270308Z 2703/2724 28008KT P6SM SKC
     FM271800 28010KT P6SM VCTS SCT030CB BKN200
     FM272000 06010KT P6SM VCTS SCT030CB BKN100=



000
FTUS42 KMFL 270308 AAB
TAFAPF
TAF AMD
KAPF 270308Z 2703/2724 26007KT P6SM SCT015
     FM270400 VRB04KT P6SM SKC
     FM271300 25009KT P6SM FEW020 BKN200=



000
FTUS42 KMFL 270308 AAA
TAFMIA
TAF AMD
KMIA 270308Z 2703/2724 26005KT P6SM SKC
     FM271800 25011KT P6SM VCTS SCT030CB BKN200
     FM272100 08009KT P6SM VCTS SCT030CB BKN100=



000
FTUS42 KMFL 270022 AAA
TAFAPF
TAF AMD
KAPF 270022Z 2700/2724 27008KT 6SM HZ SCT015
     FM270400 VRB04KT P6SM SKC
     FM271300 25009KT P6SM FEW020 BKN200=



000
FTUS42 KMFL 270022 AAA
TAFAPF
TAF AMD
KAPF 270022Z 2700/2724 27008KT 6SM HZ SCT015
     FM270400 VRB04KT P6SM SKC
     FM271300 25009KT P6SM FEW020 BKN200=



000
FTUS42 KMFL 270022 AAA
TAFAPF
TAF AMD
KAPF 270022Z 2700/2724 27008KT 6SM HZ SCT015
     FM270400 VRB04KT P6SM SKC
     FM271300 25009KT P6SM FEW020 BKN200=



000
FTUS42 KMFL 262351 CCA
TAFAPF
TAF COR
KAPF 262351Z 2700/2724 27008KT 6SM HZ SCT015 BKN025
     FM270400 VRB04KT P6SM FEW015
     FM271300 25009KT P6SM FEW020 BKN200=



000
FTUS42 KMFL 262351 CCA
TAFAPF
TAF COR
KAPF 262351Z 2700/2724 27008KT 6SM HZ SCT015 BKN025
     FM270400 VRB04KT P6SM FEW015
     FM271300 25009KT P6SM FEW020 BKN200=



000
FTUS42 KMFL 262351 CCA
TAFAPF
TAF COR
KAPF 262351Z 2700/2724 27008KT 6SM HZ SCT015 BKN025
     FM270400 VRB04KT P6SM FEW015
     FM271300 25009KT P6SM FEW020 BKN200=



000
FTUS42 KMFL 262351 CCA
TAFAPF
TAF COR
KAPF 262351Z 2700/2724 27008KT 6SM HZ SCT015 BKN025
     FM270400 VRB04KT P6SM FEW015
     FM271300 25009KT P6SM FEW020 BKN200=



000
FTUS42 KMFL 262341
TAFFLL
TAF
KFLL 262341Z 2700/2724 27012KT P6SM FEW050 FEW100 SCT250
     FM270300 28007KT P6SM FEW025
     FM271800 28010KT P6SM VCTS SCT030CB BKN200
     FM272000 06010KT P6SM VCTS SCT030CB BKN100=



000
FTUS42 KMFL 262341
TAFAPF
TAF
KAPF 262341Z 2700/2724 27008KT 6SM HZ SCT015 SCT025
     FM270400 VRB04KT P6SM FEW015
     FM271300 25009KT P6SM FEW020 BKN200=



000
FTUS42 KMFL 262341
TAFMIA
TAF
KMIA 262341Z 2700/2724 26012KT P6SM FEW050 FEW250
     FM270300 27005KT P6SM FEW025
     FM271800 25011KT P6SM VCTS SCT030CB BKN200
     FM272100 08009KT P6SM VCTS SCT030CB BKN100=



000
FTUS42 KMFL 262341
TAFFLL
TAF
KFLL 262341Z 2700/2724 27012KT P6SM FEW050 FEW100 SCT250
     FM270300 28007KT P6SM FEW025
     FM271800 28010KT P6SM VCTS SCT030CB BKN200
     FM272000 06010KT P6SM VCTS SCT030CB BKN100=



000
FTUS42 KMFL 262341
TAFPBI
TAF
KPBI 262341Z 2700/2724 27012KT P6SM FEW045 SCT250
     FM270300 27007KT P6SM SKC
     FM271800 33009KT P6SM VCTS SCT030CB BKN200
     FM272000 07007KT P6SM VCTS SCT030CB BKN050=



000
FTUS42 KMFL 262341
TAFAPF
TAF
KAPF 262341Z 2700/2724 27008KT 6SM HZ SCT015 SCT025
     FM270400 VRB04KT P6SM FEW015
     FM271300 25009KT P6SM FEW020 BKN200=



000
FTUS42 KMFL 262341
TAFMIA
TAF
KMIA 262341Z 2700/2724 26012KT P6SM FEW050 FEW250
     FM270300 27005KT P6SM FEW025
     FM271800 25011KT P6SM VCTS SCT030CB BKN200
     FM272100 08009KT P6SM VCTS SCT030CB BKN100=



000
FTUS42 KMFL 262341
TAFPBI
TAF
KPBI 262341Z 2700/2724 27012KT P6SM FEW045 SCT250
     FM270300 27007KT P6SM SKC
     FM271800 33009KT P6SM VCTS SCT030CB BKN200
     FM272000 07007KT P6SM VCTS SCT030CB BKN050=



000
FTUS42 KMFL 262111 AAA
TAFAPF
TAF AMD
KAPF 262111Z 2621/2718 27010KT P6SM SCT015
     FM270000 25007KT P6SM SKC
     FM271300 25009KT P6SM FEW020 BKN200=



000
FTUS42 KMFL 262111 AAA
TAFAPF
TAF AMD
KAPF 262111Z 2621/2718 27010KT P6SM SCT015
     FM270000 25007KT P6SM SKC
     FM271300 25009KT P6SM FEW020 BKN200=



000
FTUS42 KMFL 262111 AAA
TAFFLL
TAF AMD
KFLL 262111Z 2621/2718 26015G25KT P6SM FEW060
     FM270000 24007KT P6SM SCT250
     FM271300 28009KT P6SM FEW030 BKN200=



000
FTUS42 KMFL 262111 AAA
TAFPBI
TAF AMD
KPBI 262111Z 2621/2718 26015G25KT P6SM SCT060
     FM270000 25007KT P6SM SCT250
     FM271300 29009KT P6SM FEW030 BKN200=



000
FTUS42 KMFL 262111 AAA
TAFMIA
TAF AMD
KMIA 262111Z 2621/2718 26015G25KT P6SM FEW060
     FM270000 23007KT P6SM SCT250
     FM271300 25009KT P6SM FEW030 BKN200=



000
FTUS42 KMFL 262111 AAA
TAFPBI
TAF AMD
KPBI 262111Z 2621/2718 26015G25KT P6SM SCT060
     FM270000 25007KT P6SM SCT250
     FM271300 29009KT P6SM FEW030 BKN200=



000
FTUS42 KMFL 262111 AAA
TAFFLL
TAF AMD
KFLL 262111Z 2621/2718 26015G25KT P6SM FEW060
     FM270000 24007KT P6SM SCT250
     FM271300 28009KT P6SM FEW030 BKN200=



000
FTUS42 KMFL 262111 AAA
TAFMIA
TAF AMD
KMIA 262111Z 2621/2718 26015G25KT P6SM FEW060
     FM270000 23007KT P6SM SCT250
     FM271300 25009KT P6SM FEW030 BKN200=



000
FTUS42 KMFL 261720
TAFMIA
TAF
KMIA 261720Z 2618/2718 26015G25KT P6SM SCT040
     FM270000 23007KT P6SM SCT250
     FM271300 25009KT P6SM FEW030 BKN200=



000
FTUS42 KMFL 261720
TAFAPF
TAF
KAPF 261720Z 2618/2718 24015G25KT P6SM FEW025
     FM270000 25007KT P6SM SKC
     FM271300 25009KT P6SM FEW020 BKN200=



000
FTUS42 KMFL 261720
TAFMIA
TAF
KMIA 261720Z 2618/2718 26015G25KT P6SM SCT040
     FM270000 23007KT P6SM SCT250
     FM271300 25009KT P6SM FEW030 BKN200=



000
FTUS42 KMFL 261720
TAFMIA
TAF
KMIA 261720Z 2618/2718 26015G25KT P6SM SCT040
     FM270000 23007KT P6SM SCT250
     FM271300 25009KT P6SM FEW030 BKN200=



000
FTUS42 KMFL 261720
TAFAPF
TAF
KAPF 261720Z 2618/2718 24015G25KT P6SM FEW025
     FM270000 25007KT P6SM SKC
     FM271300 25009KT P6SM FEW020 BKN200=



000
FTUS42 KMFL 261720
TAFFLL
TAF
KFLL 261720Z 2618/2718 26015G25KT P6SM SCT040
     FM270000 24007KT P6SM SCT250
     FM271300 28009KT P6SM FEW030 BKN200=



000
FTUS42 KMFL 261720
TAFPBI
TAF
KPBI 261720Z 2618/2718 26015G25KT P6SM SCT040
     FM270000 25007KT P6SM SCT250
     FM271300 29009KT P6SM FEW030 BKN200=



000
FTUS42 KMFL 261720
TAFMIA
TAF
KMIA 261720Z 2618/2718 26015G25KT P6SM SCT040
     FM270000 23007KT P6SM SCT250
     FM271300 25009KT P6SM FEW030 BKN200=



000
FTUS42 KMFL 261720
TAFAPF
TAF
KAPF 261720Z 2618/2718 24015G25KT P6SM FEW025
     FM270000 25007KT P6SM SKC
     FM271300 25009KT P6SM FEW020 BKN200=



000
FTUS42 KMFL 261720
TAFPBI
TAF
KPBI 261720Z 2618/2718 26015G25KT P6SM SCT040
     FM270000 25007KT P6SM SCT250
     FM271300 29009KT P6SM FEW030 BKN200=



000
FTUS42 KMFL 261720
TAFFLL
TAF
KFLL 261720Z 2618/2718 26015G25KT P6SM SCT040
     FM270000 24007KT P6SM SCT250
     FM271300 28009KT P6SM FEW030 BKN200=



000
FTUS42 KMFL 261720
TAFPBI
TAF
KPBI 261720Z 2618/2718 26015G25KT P6SM SCT040
     FM270000 25007KT P6SM SCT250
     FM271300 29009KT P6SM FEW030 BKN200=



000
FTUS42 KMFL 261720
TAFFLL
TAF
KFLL 261720Z 2618/2718 26015G25KT P6SM SCT040
     FM270000 24007KT P6SM SCT250
     FM271300 28009KT P6SM FEW030 BKN200=



000
FTUS42 KMFL 261720
TAFAPF
TAF
KAPF 261720Z 2618/2718 24015G25KT P6SM FEW025
     FM270000 25007KT P6SM SKC
     FM271300 25009KT P6SM FEW020 BKN200=



000
FTUS42 KMFL 261502 AAA
TAFAPF
TAF AMD
KAPF 261502Z 2615/2712 24015G25KT P6SM FEW025
     FM270000 25007KT P6SM SKC=



000
FTUS42 KMFL 261501 AAA
TAFPBI
TAF AMD
KPBI 261501Z 2615/2712 26015KT P6SM SCT040 SCT150
     FM270000 26008KT P6SM SCT250=



000
FTUS42 KMFL 261501 AAA
TAFPBI
TAF AMD
KPBI 261501Z 2615/2712 26015KT P6SM SCT040 SCT150
     FM270000 26008KT P6SM SCT250=



000
FTUS42 KMFL 261500 AAA
TAFFLL
TAF AMD
KFLL 261500Z 2615/2712 25015KT P6SM SCT040
     FM270000 26008KT P6SM SCT250=



000
FTUS42 KMFL 261500 AAA
TAFMIA
TAF AMD
KMIA 261500Z 2615/2712 25015KT P6SM SCT040
     FM270000 26008KT P6SM SCT250=



000
FTUS42 KMFL 261500 AAA
TAFFLL
TAF AMD
KFLL 261500Z 2615/2712 25015KT P6SM SCT040
     FM270000 26008KT P6SM SCT250=



000
FTUS42 KMFL 261500 AAA
TAFMIA
TAF AMD
KMIA 261500Z 2615/2712 25015KT P6SM SCT040
     FM270000 26008KT P6SM SCT250=



000
FTUS42 KMFL 261500 AAA
TAFMIA
TAF AMD
KMIA 261500Z 2615/2712 25015KT P6SM SCT040
     FM270000 26008KT P6SM SCT250=



000
FTUS42 KMFL 261128
TAFAPF
TAF
KAPF 261128Z 2612/2712 24006KT P6SM SKC
     FM261400 24015G25KT P6SM FEW025
     FM270000 25007KT P6SM SKC=



000
FTUS42 KMFL 261128
TAFFLL
TAF
KFLL 261128Z 2612/2712 23011KT P6SM FEW010
     FM261400 26015KT P6SM SCT040
     FM270000 26008KT P6SM SCT250=



000
FTUS42 KMFL 261128
TAFPBI
TAF
KPBI 261128Z 2612/2712 23011KT P6SM FEW150
     FM261400 26015KT P6SM SCT040 SCT150
     FM270000 26008KT P6SM SCT250=



000
FTUS42 KMFL 261128
TAFMIA
TAF
KMIA 261128Z 2612/2712 23011KT P6SM FEW010
     FM261400 26015KT P6SM SCT040
     FM270000 26008KT P6SM SCT250=



000
FTUS42 KMFL 261128
TAFFLL
TAF
KFLL 261128Z 2612/2712 23011KT P6SM FEW010
     FM261400 26015KT P6SM SCT040
     FM270000 26008KT P6SM SCT250=



000
FTUS42 KMFL 261128
TAFPBI
TAF
KPBI 261128Z 2612/2712 23011KT P6SM FEW150
     FM261400 26015KT P6SM SCT040 SCT150
     FM270000 26008KT P6SM SCT250=



000
FTUS42 KMFL 261128
TAFMIA
TAF
KMIA 261128Z 2612/2712 23011KT P6SM FEW010
     FM261400 26015KT P6SM SCT040
     FM270000 26008KT P6SM SCT250=



000
FTUS42 KMFL 261128
TAFFLL
TAF
KFLL 261128Z 2612/2712 23011KT P6SM FEW010
     FM261400 26015KT P6SM SCT040
     FM270000 26008KT P6SM SCT250=



000
FTUS42 KMFL 261128
TAFAPF
TAF
KAPF 261128Z 2612/2712 24006KT P6SM SKC
     FM261400 24015G25KT P6SM FEW025
     FM270000 25007KT P6SM SKC=



000
FTUS42 KMFL 261128
TAFPBI
TAF
KPBI 261128Z 2612/2712 23011KT P6SM FEW150
     FM261400 26015KT P6SM SCT040 SCT150
     FM270000 26008KT P6SM SCT250=



000
FTUS42 KMFL 261128
TAFMIA
TAF
KMIA 261128Z 2612/2712 23011KT P6SM FEW010
     FM261400 26015KT P6SM SCT040
     FM270000 26008KT P6SM SCT250=



000
FTUS42 KMFL 261128
TAFAPF
TAF
KAPF 261128Z 2612/2712 24006KT P6SM SKC
     FM261400 24015G25KT P6SM FEW025
     FM270000 25007KT P6SM SKC=



000
FTUS42 KMFL 260838 AAA
TAFAPF
TAF AMD
KAPF 260838Z 2609/2706 24006KT P6SM SKC
     FM261400 24015G25KT P6SM FEW025
     FM270000 25007KT P6SM SKC=



000
FTUS42 KMFL 260838 AAA
TAFFLL
TAF AMD
KFLL 260838Z 2609/2706 23004KT P6SM SKC
     FM261400 25014KT P6SM FEW040
     FM270000 26006KT P6SM SKC=



000
FTUS42 KMFL 260838 AAA
TAFAPF
TAF AMD
KAPF 260838Z 2609/2706 24006KT P6SM SKC
     FM261400 24015G25KT P6SM FEW025
     FM270000 25007KT P6SM SKC=



000
FTUS42 KMFL 260838 AAA
TAFAPF
TAF AMD
KAPF 260838Z 2609/2706 24006KT P6SM SKC
     FM261400 24015G25KT P6SM FEW025
     FM270000 25007KT P6SM SKC=



000
FTUS42 KMFL 260838 AAA
TAFPBI
TAF AMD
KPBI 260838Z 2609/2706 23007KT P6SM FEW200
     FM261400 26015KT P6SM FEW040
     FM270000 26008KT P6SM SKC=



000
FTUS42 KMFL 260838 AAA
TAFPBI
TAF AMD
KPBI 260838Z 2609/2706 23007KT P6SM FEW200
     FM261400 26015KT P6SM FEW040
     FM270000 26008KT P6SM SKC=



000
FTUS42 KMFL 260838 AAA
TAFMIA
TAF AMD
KMIA 260838Z 2609/2706 23004KT P6SM FEW200
     FM261400 25014KT P6SM FEW040
     FM270000 25006KT P6SM SKC=



000
FTUS42 KMFL 260838 AAA
TAFMIA
TAF AMD
KMIA 260838Z 2609/2706 23004KT P6SM FEW200
     FM261400 25014KT P6SM FEW040
     FM270000 25006KT P6SM SKC=



000
FTUS42 KMFL 260838 AAA
TAFFLL
TAF AMD
KFLL 260838Z 2609/2706 23004KT P6SM SKC
     FM261400 25014KT P6SM FEW040
     FM270000 26006KT P6SM SKC=



000
FTUS42 KMFL 260838 AAA
TAFMIA
TAF AMD
KMIA 260838Z 2609/2706 23004KT P6SM FEW200
     FM261400 25014KT P6SM FEW040
     FM270000 25006KT P6SM SKC=



000
FTUS42 KMFL 260838 AAA
TAFFLL
TAF AMD
KFLL 260838Z 2609/2706 23004KT P6SM SKC
     FM261400 25014KT P6SM FEW040
     FM270000 26006KT P6SM SKC=



000
FTUS42 KMFL 260520
TAFPBI
TAF
KPBI 260520Z 2606/2706 23007KT P6SM FEW150
     FM261400 26015KT P6SM FEW040
     FM270000 26008KT P6SM SKC=



000
FTUS42 KMFL 260520
TAFPBI
TAF
KPBI 260520Z 2606/2706 23007KT P6SM FEW150
     FM261400 26015KT P6SM FEW040
     FM270000 26008KT P6SM SKC=



000
FTUS42 KMFL 260520
TAFPBI
TAF
KPBI 260520Z 2606/2706 23007KT P6SM FEW150
     FM261400 26015KT P6SM FEW040
     FM270000 26008KT P6SM SKC=



000
FTUS42 KMFL 260520
TAFPBI
TAF
KPBI 260520Z 2606/2706 23007KT P6SM FEW150
     FM261400 26015KT P6SM FEW040
     FM270000 26008KT P6SM SKC=



000
FTUS42 KMFL 260520
TAFMIA
TAF
KMIA 260520Z 2606/2706 23005KT P6SM FEW200
     FM261400 25014KT P6SM FEW040
     FM270000 25006KT P6SM SKC=



000
FTUS42 KMFL 260520
TAFAPF
TAF
KAPF 260520Z 2606/2706 24006KT P6SM SKC
     FM261400 24015G25KT P6SM FEW025
     FM270000 25007KT P6SM SKC=



000
FTUS42 KMFL 260520
TAFMIA
TAF
KMIA 260520Z 2606/2706 23005KT P6SM FEW200
     FM261400 25014KT P6SM FEW040
     FM270000 25006KT P6SM SKC=



000
FTUS42 KMFL 260520
TAFFLL
TAF
KFLL 260520Z 2606/2706 23006KT P6SM SKC
     FM261400 25014KT P6SM FEW040
     FM270000 26006KT P6SM SKC=



000
FTUS42 KMFL 260520
TAFAPF
TAF
KAPF 260520Z 2606/2706 24006KT P6SM SKC
     FM261400 24015G25KT P6SM FEW025
     FM270000 25007KT P6SM SKC=



000
FTUS42 KMFL 260520
TAFAPF
TAF
KAPF 260520Z 2606/2706 24006KT P6SM SKC
     FM261400 24015G25KT P6SM FEW025
     FM270000 25007KT P6SM SKC=



000
FTUS42 KMFL 260520
TAFAPF
TAF
KAPF 260520Z 2606/2706 24006KT P6SM SKC
     FM261400 24015G25KT P6SM FEW025
     FM270000 25007KT P6SM SKC=



000
FTUS42 KMFL 260520
TAFFLL
TAF
KFLL 260520Z 2606/2706 23006KT P6SM SKC
     FM261400 25014KT P6SM FEW040
     FM270000 26006KT P6SM SKC=



000
FTUS42 KMFL 260520
TAFFLL
TAF
KFLL 260520Z 2606/2706 23006KT P6SM SKC
     FM261400 25014KT P6SM FEW040
     FM270000 26006KT P6SM SKC=



000
FTUS42 KMFL 260520
TAFFLL
TAF
KFLL 260520Z 2606/2706 23006KT P6SM SKC
     FM261400 25014KT P6SM FEW040
     FM270000 26006KT P6SM SKC=



000
FTUS42 KMFL 260520
TAFMIA
TAF
KMIA 260520Z 2606/2706 23005KT P6SM FEW200
     FM261400 25014KT P6SM FEW040
     FM270000 25006KT P6SM SKC=



000
FTUS42 KMFL 260520
TAFMIA
TAF
KMIA 260520Z 2606/2706 23005KT P6SM FEW200
     FM261400 25014KT P6SM FEW040
     FM270000 25006KT P6SM SKC=



000
FTUS42 KMFL 260410 AAA
TAFPBI
TAF AMD
KPBI 260410Z 2604/2624 23006KT P6SM FEW025
     FM261400 26015KT P6SM FEW040=



000
FTUS42 KMFL 260410 AAA
TAFFLL
TAF AMD
KFLL 260410Z 2604/2624 23005KT P6SM FEW030
     FM261400 25014KT P6SM FEW040=



000
FTUS42 KMFL 260410 AAA
TAFMIA
TAF AMD
KMIA 260410Z 2604/2624 22006KT P6SM FEW100
     FM261400 25014KT P6SM FEW040=



000
FTUS42 KMFL 260410 AAA
TAFPBI
TAF AMD
KPBI 260410Z 2604/2624 23006KT P6SM FEW025
     FM261400 26015KT P6SM FEW040=



000
FTUS42 KMFL 260410 AAA
TAFMIA
TAF AMD
KMIA 260410Z 2604/2624 22006KT P6SM FEW100
     FM261400 25014KT P6SM FEW040=



000
FTUS42 KMFL 260410 AAA
TAFFLL
TAF AMD
KFLL 260410Z 2604/2624 23005KT P6SM FEW030
     FM261400 25014KT P6SM FEW040=



000
FTUS42 KMFL 260410 AAA
TAFAPF
TAF AMD
KAPF 260410Z 2604/2624 24006KT P6SM FEW020
     FM261400 24015G25KT P6SM FEW025=



000
FTUS42 KMFL 260410 AAA
TAFAPF
TAF AMD
KAPF 260410Z 2604/2624 24006KT P6SM FEW020
     FM261400 24015G25KT P6SM FEW025=



000
FTUS42 KMFL 252320
TAFAPF
TAF
KAPF 252320Z 2600/2624 24006KT P6SM FEW020
     FM261400 24015G25KT P6SM FEW025=



000
FTUS42 KMFL 252320
TAFMIA
TAF
KMIA 252320Z 2600/2624 22006KT P6SM FEW040
     FM261400 25014KT P6SM FEW040=



000
FTUS42 KMFL 252320
TAFFLL
TAF
KFLL 252320Z 2600/2624 17006KT P6SM SCT040 SCT070
     FM260200 23005KT P6SM FEW030
     FM261400 25014KT P6SM FEW040=



000
FTUS42 KMFL 252320
TAFFLL
TAF
KFLL 252320Z 2600/2624 17006KT P6SM SCT040 SCT070
     FM260200 23005KT P6SM FEW030
     FM261400 25014KT P6SM FEW040=



000
FTUS42 KMFL 252320
TAFMIA
TAF
KMIA 252320Z 2600/2624 22006KT P6SM FEW040
     FM261400 25014KT P6SM FEW040=



000
FTUS42 KMFL 252320
TAFAPF
TAF
KAPF 252320Z 2600/2624 24006KT P6SM FEW020
     FM261400 24015G25KT P6SM FEW025=



000
FTUS42 KMFL 252320
TAFPBI
TAF
KPBI 252320Z 2600/2624 VRB04KT P6SM FEW030 BKN100
     FM260200 23005KT P6SM FEW025
     FM261400 26015KT P6SM FEW040=



000
FTUS42 KMFL 252320
TAFMIA
TAF
KMIA 252320Z 2600/2624 22006KT P6SM FEW040
     FM261400 25014KT P6SM FEW040=



000
FTUS42 KMFL 252320
TAFAPF
TAF
KAPF 252320Z 2600/2624 24006KT P6SM FEW020
     FM261400 24015G25KT P6SM FEW025=



000
FTUS42 KMFL 252320
TAFPBI
TAF
KPBI 252320Z 2600/2624 VRB04KT P6SM FEW030 BKN100
     FM260200 23005KT P6SM FEW025
     FM261400 26015KT P6SM FEW040=



000
FTUS42 KMFL 252320
TAFFLL
TAF
KFLL 252320Z 2600/2624 17006KT P6SM SCT040 SCT070
     FM260200 23005KT P6SM FEW030
     FM261400 25014KT P6SM FEW040=



000
FTUS42 KMFL 252320
TAFFLL
TAF
KFLL 252320Z 2600/2624 17006KT P6SM SCT040 SCT070
     FM260200 23005KT P6SM FEW030
     FM261400 25014KT P6SM FEW040=



000
FTUS42 KMFL 252320
TAFMIA
TAF
KMIA 252320Z 2600/2624 22006KT P6SM FEW040
     FM261400 25014KT P6SM FEW040=



000
FTUS42 KMFL 252320
TAFPBI
TAF
KPBI 252320Z 2600/2624 VRB04KT P6SM FEW030 BKN100
     FM260200 23005KT P6SM FEW025
     FM261400 26015KT P6SM FEW040=



000
FTUS42 KMFL 252320
TAFPBI
TAF
KPBI 252320Z 2600/2624 VRB04KT P6SM FEW030 BKN100
     FM260200 23005KT P6SM FEW025
     FM261400 26015KT P6SM FEW040=



000
FTUS42 KMFL 252320
TAFAPF
TAF
KAPF 252320Z 2600/2624 24006KT P6SM FEW020
     FM261400 24015G25KT P6SM FEW025=



000
FTUS42 KMFL 252132 AAB
TAFPBI
TAF AMD
KPBI 252132Z 2522/2618 15014KT 3SM SHRA VCTS BKN030CB
     FM252201 16012KT P6SM VCTS SCT030CB BKN070
     FM260200 23007KT P6SM FEW040
     FM261400 25014KT P6SM FEW040=



000
FTUS42 KMFL 252132 AAB
TAFPBI
TAF AMD
KPBI 252132Z 2522/2618 15014KT 3SM SHRA VCTS BKN030CB
     FM252201 16012KT P6SM VCTS SCT030CB BKN070
     FM260200 23007KT P6SM FEW040
     FM261400 25014KT P6SM FEW040=



000
FTUS42 KMFL 252104 AAA
TAFPBI
TAF AMD
KPBI 252104Z 2521/2618 16012KT P6SM VCTS SCT030CB BKN070
     FM260200 23007KT P6SM FEW040
     FM261400 25014KT P6SM FEW040=



000
FTUS42 KMFL 252104 AAB
TAFMIA
TAF AMD
KMIA 252104Z 2521/2618 14010KT P6SM VCSH SCT025 SCT035 BKN050
     FM260000 23007KT P6SM FEW040
     FM261400 25014KT P6SM FEW040=



000
FTUS42 KMFL 252104 AAA
TAFAPF
TAF AMD
KAPF 252104Z 2521/2618 24010KT P6SM FEW020
     FM260000 21006KT P6SM FEW025
     FM261400 24014KT P6SM FEW025=



000
FTUS42 KMFL 252104 AAB
TAFFLL
TAF AMD
KFLL 252104Z 2521/2618 16011KT P6SM VCSH FEW015 BKN040 BKN080
     FM260200 23007KT P6SM FEW040
     FM261400 25014KT P6SM FEW040=



000
FTUS42 KMFL 252104 AAA
TAFPBI
TAF AMD
KPBI 252104Z 2521/2618 16012KT P6SM VCTS SCT030CB BKN070
     FM260200 23007KT P6SM FEW040
     FM261400 25014KT P6SM FEW040=



000
FTUS42 KMFL 252104 AAB
TAFMIA
TAF AMD
KMIA 252104Z 2521/2618 14010KT P6SM VCSH SCT025 SCT035 BKN050
     FM260000 23007KT P6SM FEW040
     FM261400 25014KT P6SM FEW040=



000
FTUS42 KMFL 252104 AAA
TAFAPF
TAF AMD
KAPF 252104Z 2521/2618 24010KT P6SM FEW020
     FM260000 21006KT P6SM FEW025
     FM261400 24014KT P6SM FEW025=



000
FTUS42 KMFL 252104 AAB
TAFFLL
TAF AMD
KFLL 252104Z 2521/2618 16011KT P6SM VCSH FEW015 BKN040 BKN080
     FM260200 23007KT P6SM FEW040
     FM261400 25014KT P6SM FEW040=



000
FTUS42 KMFL 252104 AAB
TAFMIA
TAF AMD
KMIA 252104Z 2521/2618 14010KT P6SM VCSH SCT025 SCT035 BKN050
     FM260000 23007KT P6SM FEW040
     FM261400 25014KT P6SM FEW040=



000
FTUS42 KMFL 252104 AAA
TAFPBI
TAF AMD
KPBI 252104Z 2521/2618 16012KT P6SM VCTS SCT030CB BKN070
     FM260200 23007KT P6SM FEW040
     FM261400 25014KT P6SM FEW040=



000
FTUS42 KMFL 252104 AAA
TAFAPF
TAF AMD
KAPF 252104Z 2521/2618 24010KT P6SM FEW020
     FM260000 21006KT P6SM FEW025
     FM261400 24014KT P6SM FEW025=



000
FTUS42 KMFL 252104 AAB
TAFFLL
TAF AMD
KFLL 252104Z 2521/2618 16011KT P6SM VCSH FEW015 BKN040 BKN080
     FM260200 23007KT P6SM FEW040
     FM261400 25014KT P6SM FEW040=



000
FTUS42 KMFL 252104 AAA
TAFAPF
TAF AMD
KAPF 252104Z 2521/2618 24010KT P6SM FEW020
     FM260000 21006KT P6SM FEW025
     FM261400 24014KT P6SM FEW025=



000
FTUS42 KMFL 252104 AAB
TAFFLL
TAF AMD
KFLL 252104Z 2521/2618 16011KT P6SM VCSH FEW015 BKN040 BKN080
     FM260200 23007KT P6SM FEW040
     FM261400 25014KT P6SM FEW040=



000
FTUS42 KMFL 252104 AAA
TAFPBI
TAF AMD
KPBI 252104Z 2521/2618 16012KT P6SM VCTS SCT030CB BKN070
     FM260200 23007KT P6SM FEW040
     FM261400 25014KT P6SM FEW040=



000
FTUS42 KMFL 252104 AAB
TAFMIA
TAF AMD
KMIA 252104Z 2521/2618 14010KT P6SM VCSH SCT025 SCT035 BKN050
     FM260000 23007KT P6SM FEW040
     FM261400 25014KT P6SM FEW040=



000
FTUS42 KMFL 251900 AAA
TAFFLL
TAF AMD
KFLL 251900Z 2519/2618 16013KT P6SM VCTS SCT030CB BKN050
      TEMPO 2519/2520 4SM SHRA BKN030
     FM260200 23007KT P6SM FEW040
     FM261400 25014KT P6SM FEW040=



000
FTUS42 KMFL 251900 AAA
TAFFLL
TAF AMD
KFLL 251900Z 2519/2618 16013KT P6SM VCTS SCT030CB BKN050
      TEMPO 2519/2520 4SM SHRA BKN030
     FM260200 23007KT P6SM FEW040
     FM261400 25014KT P6SM FEW040=



000
FTUS42 KMFL 251859 AAA
TAFMIA
TAF AMD
KMIA 251859Z 2519/2618 16010G20KT 3SM TSRA BKN030CB BKN050
     FM251915 16011KT P6SM VCTS SCT030CB BKN050
     FM260000 23007KT P6SM FEW040
     FM261400 25014KT P6SM FEW040=



000
FTUS42 KMFL 251859 AAA
TAFMIA
TAF AMD
KMIA 251859Z 2519/2618 16010G20KT 3SM TSRA BKN030CB BKN050
     FM251915 16011KT P6SM VCTS SCT030CB BKN050
     FM260000 23007KT P6SM FEW040
     FM261400 25014KT P6SM FEW040=



000
FTUS42 KMFL 251721
TAFAPF
TAF
KAPF 251721Z 2518/2618 24012KT P6SM FEW025
     FM260000 21006KT P6SM FEW025
     FM261400 24014KT P6SM FEW025=



000
FTUS42 KMFL 251721
TAFPBI
TAF
KPBI 251721Z 2518/2618 16010KT P6SM SCT030 BKN050
     FM252000 16012KT P6SM VCTS SCT030CB BKN050
     FM260200 23007KT P6SM FEW040
     FM261400 25014KT P6SM FEW040=



000
FTUS42 KMFL 251721
TAFFLL
TAF
KFLL 251721Z 2518/2618 16013KT P6SM SCT030 BKN050
     FM252000 16012KT P6SM VCTS SCT030CB BKN050
     FM260200 23007KT P6SM FEW040
     FM261400 25014KT P6SM FEW040=



000
FTUS42 KMFL 251721
TAFAPF
TAF
KAPF 251721Z 2518/2618 24012KT P6SM FEW025
     FM260000 21006KT P6SM FEW025
     FM261400 24014KT P6SM FEW025=



000
FTUS42 KMFL 251721
TAFMIA
TAF
KMIA 251721Z 2518/2618 16010KT P6SM SCT030 BKN050
     FM252000 16012KT P6SM VCTS SCT030CB BKN050
     FM260000 23007KT P6SM FEW040
     FM261400 25014KT P6SM FEW040=



000
FTUS42 KMFL 251721
TAFMIA
TAF
KMIA 251721Z 2518/2618 16010KT P6SM SCT030 BKN050
     FM252000 16012KT P6SM VCTS SCT030CB BKN050
     FM260000 23007KT P6SM FEW040
     FM261400 25014KT P6SM FEW040=



000
FTUS42 KMFL 251721
TAFAPF
TAF
KAPF 251721Z 2518/2618 24012KT P6SM FEW025
     FM260000 21006KT P6SM FEW025
     FM261400 24014KT P6SM FEW025=



000
FTUS42 KMFL 251721
TAFFLL
TAF
KFLL 251721Z 2518/2618 16013KT P6SM SCT030 BKN050
     FM252000 16012KT P6SM VCTS SCT030CB BKN050
     FM260200 23007KT P6SM FEW040
     FM261400 25014KT P6SM FEW040=



000
FTUS42 KMFL 251721
TAFPBI
TAF
KPBI 251721Z 2518/2618 16010KT P6SM SCT030 BKN050
     FM252000 16012KT P6SM VCTS SCT030CB BKN050
     FM260200 23007KT P6SM FEW040
     FM261400 25014KT P6SM FEW040=



000
FTUS42 KMFL 251458 CCA
TAFFLL
TAF COR
KFLL 251458Z 2515/2612 15010KT P6SM SCT025 BKN035
     FM251800 15012KT P6SM VCTS SCT030CB BKN060
     FM260200 23006KT P6SM FEW040=



000
FTUS42 KMFL 251458 CCA
TAFFLL
TAF COR
KFLL 251458Z 2515/2612 15010KT P6SM SCT025 BKN035
     FM251800 15012KT P6SM VCTS SCT030CB BKN060
     FM260200 23006KT P6SM FEW040=



000
FTUS42 KMFL 251458 CCA
TAFFLL
TAF COR
KFLL 251458Z 2515/2612 15010KT P6SM SCT025 BKN035
     FM251800 15012KT P6SM VCTS SCT030CB BKN060
     FM260200 23006KT P6SM FEW040=



000
FTUS42 KMFL 251458 CCA
TAFFLL
TAF COR
KFLL 251458Z 2515/2612 15010KT P6SM SCT025 BKN035
     FM251800 15012KT P6SM VCTS SCT030CB BKN060
     FM260200 23006KT P6SM FEW040=



000
FTUS42 KMFL 251457 AAA
TAFAPF
TAF AMD
KAPF 251457Z 2515/2612 20010KT P6SM SCT025 BKN035
     FM251800 22012KT P6SM FEW040
     FM260000 22005KT P6SM SKC=



000
FTUS42 KMFL 251457 AAA
TAFAPF
TAF AMD
KAPF 251457Z 2515/2612 20010KT P6SM SCT025 BKN035
     FM251800 22012KT P6SM FEW040
     FM260000 22005KT P6SM SKC=



000
FTUS42 KMFL 251454 AAA
TAFPBI
TAF AMD
KPBI 251454Z 2515/2612 14012KT P6SM SCT030
     FM251800 15012KT P6SM VCTS SCT030CB BKN060
     FM260200 23007KT P6SM FEW040=



000
FTUS42 KMFL 251454 AAA
TAFPBI
TAF AMD
KPBI 251454Z 2515/2612 14012KT P6SM SCT030
     FM251800 15012KT P6SM VCTS SCT030CB BKN060
     FM260200 23007KT P6SM FEW040=



000
FTUS42 KMFL 251451 AAA
TAFFLL
TAF AMD
KFLL 251451Z 2515/2612 15010KT P6SM SCT025 BKN035
     FM251800 15012KT P6SM VCTS SCT030CB BKN060
     FM260200 23006KT P6SM FEW040=



000
FTUS42 KMFL 251451 AAA
TAFFLL
TAF AMD
KFLL 251451Z 2515/2612 15010KT P6SM SCT025 BKN035
     FM251800 15012KT P6SM VCTS SCT030CB BKN060
     FM260200 23006KT P6SM FEW040=



000
FTUS42 KMFL 251451 AAA
TAFFLL
TAF AMD
KFLL 251451Z 2515/2612 15010KT P6SM SCT025 BKN035
     FM251800 15012KT P6SM VCTS SCT030CB BKN060
     FM260200 23006KT P6SM FEW040=



000
FTUS42 KMFL 251451 AAA
TAFFLL
TAF AMD
KFLL 251451Z 2515/2612 15010KT P6SM SCT025 BKN035
     FM251800 15012KT P6SM VCTS SCT030CB BKN060
     FM260200 23006KT P6SM FEW040=



000
FTUS42 KMFL 251447 AAA
TAFMIA
TAF AMD
KMIA 251447Z 2515/2612 15011KT P6SM VCSH SCT025 BKN035
     FM260000 20005KT P6SM FEW040=



000
FTUS42 KMFL 251120
TAFPBI
TAF
KPBI 251120Z 2512/2612 13007KT P6SM FEW030
     FM251800 14012KT P6SM VCTS SCT030CB BKN060
     FM260200 23007KT P6SM FEW040=



000
FTUS42 KMFL 251120
TAFAPF
TAF
KAPF 251120Z 2512/2612 07006KT P6SM FEW030
     FM251300 16008KT P6SM FEW030
     FM251800 22012KT P6SM SCT040
     FM260000 22005KT P6SM SKC=



000
FTUS42 KMFL 251120
TAFMIA
TAF
KMIA 251120Z 2512/2612 14007KT P6SM FEW030
     FM251800 15012KT P6SM SCT030 SCT060
     FM252300 24007KT P6SM FEW040=



000
FTUS42 KMFL 251120
TAFAPF
TAF
KAPF 251120Z 2512/2612 12006KT P6SM FEW030
     FM251600 22012KT P6SM FEW040=



000
FTUS42 KMFL 251120
TAFMIA
TAF
KMIA 251120Z 2512/2612 10005KT P6SM SCT060 BKN200
     FM251300 14011KT P6SM SCT035 SCT050
     FM260000 19005KT P6SM FEW040=



000
FTUS42 KMFL 251120
TAFPBI
TAF
KPBI 251120Z 2512/2612 08003KT P6SM SCT060
     FM251300 14011KT P6SM SCT030 SCT050
     FM260000 19006KT P6SM FEW040=



000
FTUS42 KMFL 251120
TAFPBI
TAF
KPBI 251120Z 2512/2612 08003KT P6SM SCT060
     FM251300 14011KT P6SM SCT030 SCT050
     FM260000 19006KT P6SM FEW040=



000
FTUS42 KMFL 251120
TAFFLL
TAF
KFLL 251120Z 2512/2612 08006KT P6SM FEW020 SCT050
     FM251300 14012KT P6SM SCT030 SCT050
     FM260000 19004KT P6SM FEW040=



000
FTUS42 KMFL 251120
TAFFLL
TAF
KFLL 251120Z 2512/2612 08006KT P6SM FEW020 SCT050
     FM251300 14012KT P6SM SCT030 SCT050
     FM260000 19004KT P6SM FEW040=



000
FTUS42 KMFL 251120
TAFMIA
TAF
KMIA 251120Z 2512/2612 10005KT P6SM SCT060 BKN200
     FM251300 14011KT P6SM SCT035 SCT050
     FM260000 19005KT P6SM FEW040=



000
FTUS42 KMFL 251120
TAFAPF
TAF
KAPF 251120Z 2512/2612 07006KT P6SM FEW030
     FM251300 16008KT P6SM FEW030
     FM251800 22012KT P6SM SCT040
     FM260000 22005KT P6SM SKC=



000
FTUS42 KMFL 251120
TAFAPF
TAF
KAPF 251120Z 2512/2612 12006KT P6SM FEW030
     FM251600 22012KT P6SM FEW040=



000
FTUS42 KMFL 251120
TAFMIA
TAF
KMIA 251120Z 2512/2612 14007KT P6SM FEW030
     FM251800 15012KT P6SM SCT030 SCT060
     FM252300 24007KT P6SM FEW040=



000
FTUS42 KMFL 251120
TAFFLL
TAF
KFLL 251120Z 2512/2612 13007KT P6SM FEW030
     FM251800 14012KT P6SM VCTS SCT030CB BKN060
     FM260200 23006KT P6SM FEW040=



000
FTUS42 KMFL 251120
TAFPBI
TAF
KPBI 251120Z 2512/2612 13007KT P6SM FEW030
     FM251800 14012KT P6SM VCTS SCT030CB BKN060
     FM260200 23007KT P6SM FEW040=



000
FTUS42 KMFL 251120
TAFFLL
TAF
KFLL 251120Z 2512/2612 13007KT P6SM FEW030
     FM251800 14012KT P6SM VCTS SCT030CB BKN060
     FM260200 23006KT P6SM FEW040=



000
FTUS42 KMFL 250843 AAA
TAFPBI
TAF AMD
KPBI 250843Z 2509/2606 06003KT P6SM SCT060
     FM251300 14011KT P6SM SCT030 SCT050
     FM260000 19006KT P6SM FEW040=



000
FTUS42 KMFL 250843 AAA
TAFMIA
TAF AMD
KMIA 250843Z 2509/2606 10005KT P6SM SCT060 BKN200
     FM251300 14011KT P6SM SCT035 SCT050
     FM260000 19005KT P6SM FEW040=



000
FTUS42 KMFL 250843 AAA
TAFFLL
TAF AMD
KFLL 250843Z 2509/2606 08006KT P6SM FEW020 SCT050
     FM251300 14012KT P6SM SCT030 SCT050
     FM260000 19004KT P6SM FEW040=



000
FTUS42 KMFL 250843 AAA
TAFPBI
TAF AMD
KPBI 250843Z 2509/2606 06003KT P6SM SCT060
     FM251300 14011KT P6SM SCT030 SCT050
     FM260000 19006KT P6SM FEW040=



000
FTUS42 KMFL 250843 AAA
TAFFLL
TAF AMD
KFLL 250843Z 2509/2606 08006KT P6SM FEW020 SCT050
     FM251300 14012KT P6SM SCT030 SCT050
     FM260000 19004KT P6SM FEW040=



000
FTUS42 KMFL 250843 AAA
TAFMIA
TAF AMD
KMIA 250843Z 2509/2606 10005KT P6SM SCT060 BKN200
     FM251300 14011KT P6SM SCT035 SCT050
     FM260000 19005KT P6SM FEW040=



000
FTUS42 KMFL 250843 AAA
TAFAPF
TAF AMD
KAPF 250843Z 2509/2606 07006KT P6SM FEW030
     FM251300 16008KT P6SM FEW030
     FM251800 22012KT P6SM SCT040
     FM260000 22005KT P6SM SKC=



000
FTUS42 KMFL 250843 AAA
TAFMIA
TAF AMD
KMIA 250843Z 2509/2606 10005KT P6SM SCT060 BKN200
     FM251300 14011KT P6SM SCT035 SCT050
     FM260000 19005KT P6SM FEW040=



000
FTUS42 KMFL 250843 AAA
TAFAPF
TAF AMD
KAPF 250843Z 2509/2606 07006KT P6SM FEW030
     FM251300 16008KT P6SM FEW030
     FM251800 22012KT P6SM SCT040
     FM260000 22005KT P6SM SKC=



000
FTUS42 KMFL 250843 AAA
TAFAPF
TAF AMD
KAPF 250843Z 2509/2606 07006KT P6SM FEW030
     FM251300 16008KT P6SM FEW030
     FM251800 22012KT P6SM SCT040
     FM260000 22005KT P6SM SKC=



000
FTUS42 KMFL 250843 AAA
TAFMIA
TAF AMD
KMIA 250843Z 2509/2606 10005KT P6SM SCT060 BKN200
     FM251300 14011KT P6SM SCT035 SCT050
     FM260000 19005KT P6SM FEW040=



000
FTUS42 KMFL 250843 AAA
TAFPBI
TAF AMD
KPBI 250843Z 2509/2606 06003KT P6SM SCT060
     FM251300 14011KT P6SM SCT030 SCT050
     FM260000 19006KT P6SM FEW040=



000
FTUS42 KMFL 250843 AAA
TAFFLL
TAF AMD
KFLL 250843Z 2509/2606 08006KT P6SM FEW020 SCT050
     FM251300 14012KT P6SM SCT030 SCT050
     FM260000 19004KT P6SM FEW040=



000
FTUS42 KMFL 250843 AAA
TAFAPF
TAF AMD
KAPF 250843Z 2509/2606 07006KT P6SM FEW030
     FM251300 16008KT P6SM FEW030
     FM251800 22012KT P6SM SCT040
     FM260000 22005KT P6SM SKC=



000
FTUS42 KMFL 250843 AAA
TAFPBI
TAF AMD
KPBI 250843Z 2509/2606 06003KT P6SM SCT060
     FM251300 14011KT P6SM SCT030 SCT050
     FM260000 19006KT P6SM FEW040=



000
FTUS42 KMFL 250843 AAA
TAFFLL
TAF AMD
KFLL 250843Z 2509/2606 08006KT P6SM FEW020 SCT050
     FM251300 14012KT P6SM SCT030 SCT050
     FM260000 19004KT P6SM FEW040=



000
FTUS42 KMFL 250520
TAFMIA
TAF
KMIA 250520Z 2506/2606 08006KT P6SM SCT060 BKN150
     FM251300 14011KT P6SM SCT035 SCT050
     FM260000 19005KT P6SM FEW040=



000
FTUS42 KMFL 250520
TAFPBI
TAF
KPBI 250520Z 2506/2606 06004KT P6SM SCT070
     FM251300 14011KT P6SM SCT030 SCT050
     FM260000 19006KT P6SM FEW040=



000
FTUS42 KMFL 250520
TAFFLL
TAF
KFLL 250520Z 2506/2606 07006KT P6SM FEW025 SCT060
     FM251300 14012KT P6SM SCT030 SCT050
     FM260000 19004KT P6SM FEW040=



000
FTUS42 KMFL 250520
TAFAPF
TAF
KAPF 250520Z 2506/2606 05006KT P6SM FEW030
     FM251300 16008KT P6SM FEW030
     FM251800 22012KT P6SM SCT040
     FM260000 22005KT P6SM SKC=



000
FTUS42 KMFL 250520
TAFAPF
TAF
KAPF 250520Z 2506/2606 05006KT P6SM FEW030
     FM251300 16008KT P6SM FEW030
     FM251800 22012KT P6SM SCT040
     FM260000 22005KT P6SM SKC=



000
FTUS42 KMFL 250520
TAFAPF
TAF
KAPF 250520Z 2506/2606 05006KT P6SM FEW030
     FM251300 16008KT P6SM FEW030
     FM251800 22012KT P6SM SCT040
     FM260000 22005KT P6SM SKC=



000
FTUS42 KMFL 250520
TAFFLL
TAF
KFLL 250520Z 2506/2606 07006KT P6SM FEW025 SCT060
     FM251300 14012KT P6SM SCT030 SCT050
     FM260000 19004KT P6SM FEW040=



000
FTUS42 KMFL 250520
TAFAPF
TAF
KAPF 250520Z 2506/2606 05006KT P6SM FEW030
     FM251300 16008KT P6SM FEW030
     FM251800 22012KT P6SM SCT040
     FM260000 22005KT P6SM SKC=



000
FTUS42 KMFL 250520
TAFMIA
TAF
KMIA 250520Z 2506/2606 08006KT P6SM SCT060 BKN150
     FM251300 14011KT P6SM SCT035 SCT050
     FM260000 19005KT P6SM FEW040=



000
FTUS42 KMFL 250520
TAFPBI
TAF
KPBI 250520Z 2506/2606 06004KT P6SM SCT070
     FM251300 14011KT P6SM SCT030 SCT050
     FM260000 19006KT P6SM FEW040=



000
FTUS42 KMFL 250520
TAFPBI
TAF
KPBI 250520Z 2506/2606 06004KT P6SM SCT070
     FM251300 14011KT P6SM SCT030 SCT050
     FM260000 19006KT P6SM FEW040=



000
FTUS42 KMFL 250520
TAFPBI
TAF
KPBI 250520Z 2506/2606 06004KT P6SM SCT070
     FM251300 14011KT P6SM SCT030 SCT050
     FM260000 19006KT P6SM FEW040=



000
FTUS42 KMFL 250520
TAFFLL
TAF
KFLL 250520Z 2506/2606 07006KT P6SM FEW025 SCT060
     FM251300 14012KT P6SM SCT030 SCT050
     FM260000 19004KT P6SM FEW040=



000
FTUS42 KMFL 250520
TAFFLL
TAF
KFLL 250520Z 2506/2606 07006KT P6SM FEW025 SCT060
     FM251300 14012KT P6SM SCT030 SCT050
     FM260000 19004KT P6SM FEW040=



000
FTUS42 KMFL 250520
TAFMIA
TAF
KMIA 250520Z 2506/2606 08006KT P6SM SCT060 BKN150
     FM251300 14011KT P6SM SCT035 SCT050
     FM260000 19005KT P6SM FEW040=



000
FTUS42 KMFL 250305 AAA
TAFMIA
TAF AMD
KMIA 250305Z 2503/2524 07005KT P6SM FEW035 BKN060
     FM251300 14011KT P6SM SCT035 SCT050=



000
FTUS42 KMFL 250305 AAA
TAFAPF
TAF AMD
KAPF 250305Z 2503/2524 01003KT P6SM FEW030
     FM251300 16008KT P6SM FEW030=



000
FTUS42 KMFL 250305 AAA
TAFFLL
TAF AMD
KFLL 250305Z 2503/2524 07006KT P6SM FEW030 SCT060
     FM251300 14012KT P6SM SCT030 SCT050=



000
FTUS42 KMFL 250305 AAA
TAFPBI
TAF AMD
KPBI 250305Z 2503/2524 06004KT P6SM SCT050
     FM251300 14011KT P6SM SCT030 SCT050=



000
FTUS42 KMFL 250305 AAA
TAFPBI
TAF AMD
KPBI 250305Z 2503/2524 06004KT P6SM SCT050
     FM251300 14011KT P6SM SCT030 SCT050=



000
FTUS42 KMFL 250305 AAA
TAFMIA
TAF AMD
KMIA 250305Z 2503/2524 07005KT P6SM FEW035 BKN060
     FM251300 14011KT P6SM SCT035 SCT050=



000
FTUS42 KMFL 250305 AAA
TAFPBI
TAF AMD
KPBI 250305Z 2503/2524 06004KT P6SM SCT050
     FM251300 14011KT P6SM SCT030 SCT050=



000
FTUS42 KMFL 250305 AAA
TAFFLL
TAF AMD
KFLL 250305Z 2503/2524 07006KT P6SM FEW030 SCT060
     FM251300 14012KT P6SM SCT030 SCT050=



000
FTUS42 KMFL 250305 AAA
TAFFLL
TAF AMD
KFLL 250305Z 2503/2524 07006KT P6SM FEW030 SCT060
     FM251300 14012KT P6SM SCT030 SCT050=



000
FTUS42 KMFL 250305 AAA
TAFAPF
TAF AMD
KAPF 250305Z 2503/2524 01003KT P6SM FEW030
     FM251300 16008KT P6SM FEW030=



000
FTUS42 KMFL 250305 AAA
TAFMIA
TAF AMD
KMIA 250305Z 2503/2524 07005KT P6SM FEW035 BKN060
     FM251300 14011KT P6SM SCT035 SCT050=



000
FTUS42 KMFL 242334
TAFPBI
TAF
KPBI 242334Z 2500/2524 03009KT P6SM FEW040 BKN250
     FM250100 07003KT P6SM FEW025 SCT050
     FM251300 14011KT P6SM SCT030 SCT050=



000
FTUS42 KMFL 242334
TAFAPF
TAF
KAPF 242334Z 2500/2524 29010KT P6SM SKC
     FM250200 05003KT P6SM FEW030
     FM251300 16008KT P6SM FEW030=



000
FTUS42 KMFL 242334
TAFMIA
TAF
KMIA 242334Z 2500/2524 09009KT 6SM -RA BKN021 BKN035
     FM250100 08003KT P6SM FEW025 SCT040
     FM251300 14011KT P6SM SCT035 SCT050=



000
FTUS42 KMFL 242334
TAFFLL
TAF
KFLL 242334Z 2500/2524 04008KT P6SM FEW019 SCT025 BKN250
     FM250100 08005KT P6SM FEW025 SCT040
     FM251300 14012KT P6SM SCT030 SCT050=



000
FTUS42 KMFL 242334
TAFFLL
TAF
KFLL 242334Z 2500/2524 04008KT P6SM FEW019 SCT025 BKN250
     FM250100 08005KT P6SM FEW025 SCT040
     FM251300 14012KT P6SM SCT030 SCT050=



000
FTUS42 KMFL 242334
TAFAPF
TAF
KAPF 242334Z 2500/2524 29010KT P6SM SKC
     FM250200 05003KT P6SM FEW030
     FM251300 16008KT P6SM FEW030=



000
FTUS42 KMFL 242334
TAFMIA
TAF
KMIA 242334Z 2500/2524 09009KT 6SM -RA BKN021 BKN035
     FM250100 08003KT P6SM FEW025 SCT040
     FM251300 14011KT P6SM SCT035 SCT050=



000
FTUS42 KMFL 242334
TAFPBI
TAF
KPBI 242334Z 2500/2524 03009KT P6SM FEW040 BKN250
     FM250100 07003KT P6SM FEW025 SCT050
     FM251300 14011KT P6SM SCT030 SCT050=



000
FTUS42 KMFL 242239 AAB
TAFMIA
TAF AMD
KMIA 242239Z 2423/2518 13012KT 5SM RA BKN030
     FM242315 13012KT P6SM VCSH SCT030 BKN050
     FM250000 08003KT P6SM FEW025 SCT040
     FM251300 14011KT P6SM SCT035 SCT050=



000
FTUS42 KMFL 242239 AAB
TAFMIA
TAF AMD
KMIA 242239Z 2423/2518 13012KT 5SM RA BKN030
     FM242315 13012KT P6SM VCSH SCT030 BKN050
     FM250000 08003KT P6SM FEW025 SCT040
     FM251300 14011KT P6SM SCT035 SCT050=



000
FTUS42 KMFL 242159 AAA
TAFMIA
TAF AMD
KMIA 242159Z 2422/2518 13012KT P6SM VCSH SCT030 BKN050
     FM250000 08003KT P6SM FEW025 SCT040
     FM251300 14011KT P6SM SCT035 SCT050=



000
FTUS42 KMFL 242159 AAA
TAFMIA
TAF AMD
KMIA 242159Z 2422/2518 13012KT P6SM VCSH SCT030 BKN050
     FM250000 08003KT P6SM FEW025 SCT040
     FM251300 14011KT P6SM SCT035 SCT050=



000
FTUS42 KMFL 242159 AAA
TAFMIA
TAF AMD
KMIA 242159Z 2422/2518 13012KT P6SM VCSH SCT030 BKN050
     FM250000 08003KT P6SM FEW025 SCT040
     FM251300 14011KT P6SM SCT035 SCT050=



000
FTUS42 KMFL 242159 AAA
TAFMIA
TAF AMD
KMIA 242159Z 2422/2518 13012KT P6SM VCSH SCT030 BKN050
     FM250000 08003KT P6SM FEW025 SCT040
     FM251300 14011KT P6SM SCT035 SCT050=



    US Dept of Commerce
    National Oceanic and Atmospheric Administration
    National Weather Service
    1325 East West Highway
    Silver Spring, MD 20910
    Page Author: NWS Internet Services Team
Disclaimer
Information Quality
Credits
Glossary
Privacy Policy
Freedom of Information Act (FOIA)
About Us
Career Opportunities